sensor_id;sensor_type;location;lat;lon;timestamp;temperature;humidity
42201;DHT22;27869;51.442;7.540;2023-04-24T00:01:28;11.40;99.90
42201;DHT22;27869;51.442;7.540;2023-04-24T00:03:55;11.40;99.90
42201;DHT22;27869;51.442;7.540;2023-04-24T00:06:24;11.40;99.90
42201;DHT22;27869;51.442;7.540;2023-04-24T00:08:58;11.40;99.90
42201;DHT22;27869;51.442;7.540;2023-04-24T00:11:26;11.40;99.90
42201;DHT22;27869;51.442;7.540;2023-04-24T00:13:53;11.30;99.90
42201;DHT22;27869;51.442;7.540;2023-04-24T00:16:21;11.30;99.90
42201;DHT22;27869;51.442;7.540;2023-04-24T00:18:48;11.30;99.90
42201;DHT22;27869;51.442;7.540;2023-04-24T00:21:15;11.20;99.90
42201;DHT22;27869;51.442;7.540;2023-04-24T00:23:43;11.30;99.90
42201;DHT22;27869;51.442;7.540;2023-04-24T00:26:10;11.20;99.90
42201;DHT22;27869;51.442;7.540;2023-04-24T00:28:37;11.20;99.90
42201;DHT22;27869;51.442;7.540;2023-04-24T00:31:04;11.20;99.90
42201;DHT22;27869;51.442;7.540;2023-04-24T00:33:32;11.20;99.90
42201;DHT22;27869;51.442;7.540;2023-04-24T00:35:59;11.20;99.90
42201;DHT22;27869;51.442;7.540;2023-04-24T00:38:26;11.10;99.90
42201;DHT22;27869;51.442;7.540;2023-04-24T00:40:53;11.10;99.90
42201;DHT22;27869;51.442;7.540;2023-04-24T00:43:20;11.10;99.90
42201;DHT22;27869;51.442;7.540;2023-04-24T00:45:47;11.10;99.90
42201;DHT22;27869;51.442;7.540;2023-04-24T00:48:14;11.10;99.90
42201;DHT22;27869;51.442;7.540;2023-04-24T00:50:43;11.10;99.90
42201;DHT22;27869;51.442;7.540;2023-04-24T00:53:10;11.00;99.90
42201;DHT22;27869;51.442;7.540;2023-04-24T00:55:37;11.00;99.90
42201;DHT22;27869;51.442;7.540;2023-04-24T00:58:04;11.00;99.90
42201;DHT22;27869;51.442;7.540;2023-04-24T01:00:31;11.00;99.90
42201;DHT22;27869;51.442;7.540;2023-04-24T01:03:01;11.00;99.90
42201;DHT22;27869;51.442;7.540;2023-04-24T01:05:31;11.00;99.90
42201;DHT22;27869;51.442;7.540;2023-04-24T01:08:01;10.90;99.90
42201;DHT22;27869;51.442;7.540;2023-04-24T01:10:29;10.90;99.90
42201;DHT22;27869;51.442;7.540;2023-04-24T01:12:58;10.90;99.90
42201;DHT22;27869;51.442;7.540;2023-04-24T01:15:25;10.90;99.90
42201;DHT22;27869;51.442;7.540;2023-04-24T01:17:52;10.90;99.90
42201;DHT22;27869;51.442;7.540;2023-04-24T01:20:19;10.80;99.90
42201;DHT22;27869;51.442;7.540;2023-04-24T01:22:48;10.90;99.90
42201;DHT22;27869;51.442;7.540;2023-04-24T01:25:15;10.90;99.90
42201;DHT22;27869;51.442;7.540;2023-04-24T01:27:42;10.80;99.90
42201;DHT22;27869;51.442;7.540;2023-04-24T01:30:10;10.80;99.90
42201;DHT22;27869;51.442;7.540;2023-04-24T01:32:37;10.80;99.90
42201;DHT22;27869;51.442;7.540;2023-04-24T01:35:06;10.80;99.90
42201;DHT22;27869;51.442;7.540;2023-04-24T01:37:33;10.80;99.90
42201;DHT22;27869;51.442;7.540;2023-04-24T01:40:04;10.80;99.90
42201;DHT22;27869;51.442;7.540;2023-04-24T01:42:31;10.80;99.90
42201;DHT22;27869;51.442;7.540;2023-04-24T01:44:58;10.80;99.90
42201;DHT22;27869;51.442;7.540;2023-04-24T01:47:25;10.80;99.90
42201;DHT22;27869;51.442;7.540;2023-04-24T01:49:52;10.80;99.90
42201;DHT22;27869;51.442;7.540;2023-04-24T01:52:19;10.80;99.90
42201;DHT22;27869;51.442;7.540;2023-04-24T01:54:46;10.80;99.90
42201;DHT22;27869;51.442;7.540;2023-04-24T01:57:16;10.80;99.90
42201;DHT22;27869;51.442;7.540;2023-04-24T01:59:43;10.80;99.90
42201;DHT22;27869;51.442;7.540;2023-04-24T02:02:10;10.80;99.90
42201;DHT22;27869;51.442;7.540;2023-04-24T02:04:37;10.80;99.90
42201;DHT22;27869;51.442;7.540;2023-04-24T02:07:04;10.80;99.90
42201;DHT22;27869;51.442;7.540;2023-04-24T02:09:31;10.80;99.90
42201;DHT22;27869;51.442;7.540;2023-04-24T02:11:58;10.80;99.90
42201;DHT22;27869;51.442;7.540;2023-04-24T02:14:27;10.80;99.90
42201;DHT22;27869;51.442;7.540;2023-04-24T02:16:54;10.80;99.90
42201;DHT22;27869;51.442;7.540;2023-04-24T02:19:21;10.80;99.90
42201;DHT22;27869;51.442;7.540;2023-04-24T02:21:47;10.80;99.90
42201;DHT22;27869;51.442;7.540;2023-04-24T02:24:14;10.80;99.90
42201;DHT22;27869;51.442;7.540;2023-04-24T02:26:41;10.80;99.90
42201;DHT22;27869;51.442;7.540;2023-04-24T02:29:08;10.80;99.90
42201;DHT22;27869;51.442;7.540;2023-04-24T02:31:37;10.80;99.90
42201;DHT22;27869;51.442;7.540;2023-04-24T02:34:04;10.80;99.90
42201;DHT22;27869;51.442;7.540;2023-04-24T02:36:31;10.80;99.90
42201;DHT22;27869;51.442;7.540;2023-04-24T02:38:58;10.80;99.90
42201;DHT22;27869;51.442;7.540;2023-04-24T02:41:25;10.80;99.90
42201;DHT22;27869;51.442;7.540;2023-04-24T02:43:56;10.70;99.90
42201;DHT22;27869;51.442;7.540;2023-04-24T02:46:23;10.70;99.90
42201;DHT22;27869;51.442;7.540;2023-04-24T02:48:52;10.70;99.90
42201;DHT22;27869;51.442;7.540;2023-04-24T02:51:19;10.70;99.90
42201;DHT22;27869;51.442;7.540;2023-04-24T02:53:46;10.70;99.90
42201;DHT22;27869;51.442;7.540;2023-04-24T02:56:12;10.60;99.90
42201;DHT22;27869;51.442;7.540;2023-04-24T02:58:39;10.60;99.90
42201;DHT22;27869;51.442;7.540;2023-04-24T03:01:06;10.60;99.90
42201;DHT22;27869;51.442;7.540;2023-04-24T03:03:33;10.60;99.90
42201;DHT22;27869;51.442;7.540;2023-04-24T03:06:01;10.50;99.90
42201;DHT22;27869;51.442;7.540;2023-04-24T03:08:28;10.50;99.90
42201;DHT22;27869;51.442;7.540;2023-04-24T03:10:55;10.50;99.90
42201;DHT22;27869;51.442;7.540;2023-04-24T03:13:22;10.50;99.90
42201;DHT22;27869;51.442;7.540;2023-04-24T03:15:49;10.40;99.90
42201;DHT22;27869;51.442;7.540;2023-04-24T03:18:15;10.40;99.90
42201;DHT22;27869;51.442;7.540;2023-04-24T03:20:43;10.40;99.90
42201;DHT22;27869;51.442;7.540;2023-04-24T03:23:13;10.30;99.90
42201;DHT22;27869;51.442;7.540;2023-04-24T03:25:40;10.30;99.90
42201;DHT22;27869;51.442;7.540;2023-04-24T03:28:08;10.20;99.90
42201;DHT22;27869;51.442;7.540;2023-04-24T03:30:35;10.20;99.90
42201;DHT22;27869;51.442;7.540;2023-04-24T03:33:02;10.10;99.90
42201;DHT22;27869;51.442;7.540;2023-04-24T03:35:29;10.10;99.90
42201;DHT22;27869;51.442;7.540;2023-04-24T03:37:55;10.10;99.90
42201;DHT22;27869;51.442;7.540;2023-04-24T03:40:24;10.00;99.90
42201;DHT22;27869;51.442;7.540;2023-04-24T03:42:50;10.00;99.90
42201;DHT22;27869;51.442;7.540;2023-04-24T03:45:17;10.00;99.90
42201;DHT22;27869;51.442;7.540;2023-04-24T03:47:45;10.00;99.90
42201;DHT22;27869;51.442;7.540;2023-04-24T03:50:11;10.00;99.90
42201;DHT22;27869;51.442;7.540;2023-04-24T03:52:38;10.00;99.90
42201;DHT22;27869;51.442;7.540;2023-04-24T03:55:06;9.90;99.90
42201;DHT22;27869;51.442;7.540;2023-04-24T03:57:35;10.00;99.90
42201;DHT22;27869;51.442;7.540;2023-04-24T04:00:02;10.00;99.90
42201;DHT22;27869;51.442;7.540;2023-04-24T04:02:30;10.00;99.90
42201;DHT22;27869;51.442;7.540;2023-04-24T04:04:56;10.00;99.90
42201;DHT22;27869;51.442;7.540;2023-04-24T04:07:23;10.00;99.90
42201;DHT22;27869;51.442;7.540;2023-04-24T04:09:51;9.90;99.90
42201;DHT22;27869;51.442;7.540;2023-04-24T04:12:18;9.90;99.90
42201;DHT22;27869;51.442;7.540;2023-04-24T04:14:46;10.00;99.90
42201;DHT22;27869;51.442;7.540;2023-04-24T04:17:13;9.90;99.90
42201;DHT22;27869;51.442;7.540;2023-04-24T04:19:40;9.90;99.90
42201;DHT22;27869;51.442;7.540;2023-04-24T04:22:07;9.90;99.90
42201;DHT22;27869;51.442;7.540;2023-04-24T04:24:34;9.90;99.90
42201;DHT22;27869;51.442;7.540;2023-04-24T04:27:03;9.90;99.90
42201;DHT22;27869;51.442;7.540;2023-04-24T04:29:30;9.90;99.90
42201;DHT22;27869;51.442;7.540;2023-04-24T04:31:59;9.90;99.90
42201;DHT22;27869;51.442;7.540;2023-04-24T04:34:26;9.90;99.90
42201;DHT22;27869;51.442;7.540;2023-04-24T04:36:54;9.90;99.90
42201;DHT22;27869;51.442;7.540;2023-04-24T04:39:21;9.80;99.90
42201;DHT22;27869;51.442;7.540;2023-04-24T04:41:48;9.90;99.90
42201;DHT22;27869;51.442;7.540;2023-04-24T04:44:15;9.80;99.90
42201;DHT22;27869;51.442;7.540;2023-04-24T04:46:44;9.90;99.90
42201;DHT22;27869;51.442;7.540;2023-04-24T04:49:13;9.90;99.90
42201;DHT22;27869;51.442;7.540;2023-04-24T04:51:42;9.80;99.90
42201;DHT22;27869;51.442;7.540;2023-04-24T04:54:09;9.80;99.90
42201;DHT22;27869;51.442;7.540;2023-04-24T04:56:36;9.90;99.90
42201;DHT22;27869;51.442;7.540;2023-04-24T04:59:03;9.90;99.90
42201;DHT22;27869;51.442;7.540;2023-04-24T05:01:29;9.80;99.90
42201;DHT22;27869;51.442;7.540;2023-04-24T05:03:56;9.90;99.90
42201;DHT22;27869;51.442;7.540;2023-04-24T05:06:24;9.80;99.90
42201;DHT22;27869;51.442;7.540;2023-04-24T05:08:51;9.90;99.90
42201;DHT22;27869;51.442;7.540;2023-04-24T05:11:22;9.80;99.90
42201;DHT22;27869;51.442;7.540;2023-04-24T05:13:50;9.80;99.90
42201;DHT22;27869;51.442;7.540;2023-04-24T05:16:16;9.80;99.90
42201;DHT22;27869;51.442;7.540;2023-04-24T05:18:43;9.80;99.90
42201;DHT22;27869;51.442;7.540;2023-04-24T05:21:10;9.80;99.90
42201;DHT22;27869;51.442;7.540;2023-04-24T05:23:38;9.80;99.90
42201;DHT22;27869;51.442;7.540;2023-04-24T05:26:05;9.80;99.90
42201;DHT22;27869;51.442;7.540;2023-04-24T05:28:32;9.80;99.90
42201;DHT22;27869;51.442;7.540;2023-04-24T05:31:02;9.80;99.90
42201;DHT22;27869;51.442;7.540;2023-04-24T05:33:29;9.80;99.90
42201;DHT22;27869;51.442;7.540;2023-04-24T05:35:56;9.80;99.90
42201;DHT22;27869;51.442;7.540;2023-04-24T05:38:23;9.80;99.90
42201;DHT22;27869;51.442;7.540;2023-04-24T05:40:51;9.80;99.90
42201;DHT22;27869;51.442;7.540;2023-04-24T05:43:18;9.80;99.90
42201;DHT22;27869;51.442;7.540;2023-04-24T05:45:45;9.80;99.90
42201;DHT22;27869;51.442;7.540;2023-04-24T05:48:12;9.80;99.90
42201;DHT22;27869;51.442;7.540;2023-04-24T05:50:39;9.80;99.90
42201;DHT22;27869;51.442;7.540;2023-04-24T05:53:05;9.80;99.90
42201;DHT22;27869;51.442;7.540;2023-04-24T05:55:33;9.80;99.90
42201;DHT22;27869;51.442;7.540;2023-04-24T05:58:02;9.80;99.90
42201;DHT22;27869;51.442;7.540;2023-04-24T06:00:29;9.80;99.90
42201;DHT22;27869;51.442;7.540;2023-04-24T06:02:56;9.80;99.90
42201;DHT22;27869;51.442;7.540;2023-04-24T06:05:23;9.70;99.90
42201;DHT22;27869;51.442;7.540;2023-04-24T06:07:51;9.70;99.90
42201;DHT22;27869;51.442;7.540;2023-04-24T06:10:18;9.70;99.90
42201;DHT22;27869;51.442;7.540;2023-04-24T06:12:44;9.70;99.90
42201;DHT22;27869;51.442;7.540;2023-04-24T06:15:13;9.60;99.90
42201;DHT22;27869;51.442;7.540;2023-04-24T06:17:40;9.60;99.90
42201;DHT22;27869;51.442;7.540;2023-04-24T06:20:07;9.60;99.90
42201;DHT22;27869;51.442;7.540;2023-04-24T06:22:34;9.60;99.90
42201;DHT22;27869;51.442;7.540;2023-04-24T06:25:01;9.60;99.90
42201;DHT22;27869;51.442;7.540;2023-04-24T06:27:28;9.60;99.90
42201;DHT22;27869;51.442;7.540;2023-04-24T06:29:54;9.60;99.90
42201;DHT22;27869;51.442;7.540;2023-04-24T06:32:23;9.60;99.90
42201;DHT22;27869;51.442;7.540;2023-04-24T06:34:51;9.70;99.90
42201;DHT22;27869;51.442;7.540;2023-04-24T06:37:19;9.70;99.90
42201;DHT22;27869;51.442;7.540;2023-04-24T06:39:46;9.70;99.90
42201;DHT22;27869;51.442;7.540;2023-04-24T06:42:13;9.70;99.90
42201;DHT22;27869;51.442;7.540;2023-04-24T06:44:40;9.70;99.90
42201;DHT22;27869;51.442;7.540;2023-04-24T06:47:07;9.70;99.90
42201;DHT22;27869;51.442;7.540;2023-04-24T06:49:36;9.70;99.90
42201;DHT22;27869;51.442;7.540;2023-04-24T06:52:03;9.70;99.90
42201;DHT22;27869;51.442;7.540;2023-04-24T06:54:31;9.70;99.90
42201;DHT22;27869;51.442;7.540;2023-04-24T06:56:58;9.70;99.90
42201;DHT22;27869;51.442;7.540;2023-04-24T06:59:26;9.70;99.90
42201;DHT22;27869;51.442;7.540;2023-04-24T07:01:53;9.60;99.90
42201;DHT22;27869;51.442;7.540;2023-04-24T07:04:20;9.60;99.90
42201;DHT22;27869;51.442;7.540;2023-04-24T07:06:48;9.60;99.90
42201;DHT22;27869;51.442;7.540;2023-04-24T07:09:16;9.60;99.90
42201;DHT22;27869;51.442;7.540;2023-04-24T07:11:44;9.60;99.90
42201;DHT22;27869;51.442;7.540;2023-04-24T07:14:11;9.60;99.90
42201;DHT22;27869;51.442;7.540;2023-04-24T07:16:37;9.60;99.90
42201;DHT22;27869;51.442;7.540;2023-04-24T07:19:05;9.50;99.90
42201;DHT22;27869;51.442;7.540;2023-04-24T07:21:31;9.50;99.90
42201;DHT22;27869;51.442;7.540;2023-04-24T07:24:00;9.50;99.90
42201;DHT22;27869;51.442;7.540;2023-04-24T07:26:29;9.60;99.90
42201;DHT22;27869;51.442;7.540;2023-04-24T07:28:57;9.60;99.90
42201;DHT22;27869;51.442;7.540;2023-04-24T07:31:24;9.60;99.90
42201;DHT22;27869;51.442;7.540;2023-04-24T07:33:51;9.70;99.90
42201;DHT22;27869;51.442;7.540;2023-04-24T07:36:18;9.70;99.90
42201;DHT22;27869;51.442;7.540;2023-04-24T07:38:45;9.60;99.90
42201;DHT22;27869;51.442;7.540;2023-04-24T07:41:14;9.70;99.90
42201;DHT22;27869;51.442;7.540;2023-04-24T07:43:41;9.60;99.90
42201;DHT22;27869;51.442;7.540;2023-04-24T07:46:08;9.60;99.90
42201;DHT22;27869;51.442;7.540;2023-04-24T07:48:36;9.60;99.90
42201;DHT22;27869;51.442;7.540;2023-04-24T07:51:03;9.60;99.90
42201;DHT22;27869;51.442;7.540;2023-04-24T07:53:30;9.60;99.90
42201;DHT22;27869;51.442;7.540;2023-04-24T07:55:57;9.60;99.90
42201;DHT22;27869;51.442;7.540;2023-04-24T07:58:25;9.60;99.90
42201;DHT22;27869;51.442;7.540;2023-04-24T08:00:52;9.60;99.90
42201;DHT22;27869;51.442;7.540;2023-04-24T08:03:19;9.60;99.90
42201;DHT22;27869;51.442;7.540;2023-04-24T08:05:46;9.50;99.90
42201;DHT22;27869;51.442;7.540;2023-04-24T08:08:13;9.50;99.90
42201;DHT22;27869;51.442;7.540;2023-04-24T08:10:40;9.50;99.90
42201;DHT22;27869;51.442;7.540;2023-04-24T08:13:07;9.50;99.90
42201;DHT22;27869;51.442;7.540;2023-04-24T08:15:35;9.50;99.90
42201;DHT22;27869;51.442;7.540;2023-04-24T08:18:02;9.50;99.90
42201;DHT22;27869;51.442;7.540;2023-04-24T08:20:29;9.40;99.90
42201;DHT22;27869;51.442;7.540;2023-04-24T08:22:56;9.50;99.90
42201;DHT22;27869;51.442;7.540;2023-04-24T08:25:23;9.50;99.90
42201;DHT22;27869;51.442;7.540;2023-04-24T08:27:50;9.60;99.90
42201;DHT22;27869;51.442;7.540;2023-04-24T08:30:17;9.60;99.90
42201;DHT22;27869;51.442;7.540;2023-04-24T08:32:46;9.60;99.90
42201;DHT22;27869;51.442;7.540;2023-04-24T08:35:13;9.50;99.90
42201;DHT22;27869;51.442;7.540;2023-04-24T08:37:40;9.50;99.90
42201;DHT22;27869;51.442;7.540;2023-04-24T08:40:12;9.50;99.90
42201;DHT22;27869;51.442;7.540;2023-04-24T08:42:41;9.50;99.90
42201;DHT22;27869;51.442;7.540;2023-04-24T08:45:09;9.50;99.90
42201;DHT22;27869;51.442;7.540;2023-04-24T08:47:38;9.40;99.90
42201;DHT22;27869;51.442;7.540;2023-04-24T08:50:08;9.40;99.90
42201;DHT22;27869;51.442;7.540;2023-04-24T08:52:35;9.40;99.90
42201;DHT22;27869;51.442;7.540;2023-04-24T08:55:03;9.40;99.90
42201;DHT22;27869;51.442;7.540;2023-04-24T08:57:31;9.30;99.90
42201;DHT22;27869;51.442;7.540;2023-04-24T09:00:00;9.30;99.90
42201;DHT22;27869;51.442;7.540;2023-04-24T09:02:27;9.30;99.90
42201;DHT22;27869;51.442;7.540;2023-04-24T09:04:56;9.30;99.90
42201;DHT22;27869;51.442;7.540;2023-04-24T09:07:24;9.20;99.90
42201;DHT22;27869;51.442;7.540;2023-04-24T09:09:54;9.20;99.90
42201;DHT22;27869;51.442;7.540;2023-04-24T09:12:21;9.10;99.90
42201;DHT22;27869;51.442;7.540;2023-04-24T09:14:49;9.10;99.90
42201;DHT22;27869;51.442;7.540;2023-04-24T09:17:16;9.10;99.90
42201;DHT22;27869;51.442;7.540;2023-04-24T09:19:43;9.00;99.90
42201;DHT22;27869;51.442;7.540;2023-04-24T09:22:11;9.00;99.90
42201;DHT22;27869;51.442;7.540;2023-04-24T09:24:39;9.00;99.90
42201;DHT22;27869;51.442;7.540;2023-04-24T09:27:07;8.90;99.90
42201;DHT22;27869;51.442;7.540;2023-04-24T09:29:34;8.90;99.90
42201;DHT22;27869;51.442;7.540;2023-04-24T09:32:18;8.90;99.90
42201;DHT22;27869;51.442;7.540;2023-04-24T09:34:47;8.90;99.90
42201;DHT22;27869;51.442;7.540;2023-04-24T09:37:28;8.80;99.90
42201;DHT22;27869;51.442;7.540;2023-04-24T09:40:09;8.80;99.90
42201;DHT22;27869;51.442;7.540;2023-04-24T09:42:37;8.80;99.90
42201;DHT22;27869;51.442;7.540;2023-04-24T09:45:08;8.80;99.90
42201;DHT22;27869;51.442;7.540;2023-04-24T09:47:36;8.80;99.90
42201;DHT22;27869;51.442;7.540;2023-04-24T09:50:10;8.80;99.90
42201;DHT22;27869;51.442;7.540;2023-04-24T09:52:40;8.80;99.90
42201;DHT22;27869;51.442;7.540;2023-04-24T09:55:13;8.80;99.90
42201;DHT22;27869;51.442;7.540;2023-04-24T09:57:49;8.80;99.90
42201;DHT22;27869;51.442;7.540;2023-04-24T10:00:22;8.80;99.90
42201;DHT22;27869;51.442;7.540;2023-04-24T10:02:56;8.80;99.90
42201;DHT22;27869;51.442;7.540;2023-04-24T10:05:24;8.80;99.90
42201;DHT22;27869;51.442;7.540;2023-04-24T10:07:51;8.80;99.90
42201;DHT22;27869;51.442;7.540;2023-04-24T10:10:23;8.80;99.90
42201;DHT22;27869;51.442;7.540;2023-04-24T10:12:51;8.80;99.90
42201;DHT22;27869;51.442;7.540;2023-04-24T10:15:18;8.80;99.90
42201;DHT22;27869;51.442;7.540;2023-04-24T10:17:48;8.80;99.90
42201;DHT22;27869;51.442;7.540;2023-04-24T10:20:21;8.80;99.90
42201;DHT22;27869;51.442;7.540;2023-04-24T10:22:49;8.70;99.90
42201;DHT22;27869;51.442;7.540;2023-04-24T10:25:17;8.70;99.90
42201;DHT22;27869;51.442;7.540;2023-04-24T10:27:47;8.60;99.90
42201;DHT22;27869;51.442;7.540;2023-04-24T10:30:15;8.60;99.90
42201;DHT22;27869;51.442;7.540;2023-04-24T10:32:42;8.60;99.90
42201;DHT22;27869;51.442;7.540;2023-04-24T10:35:09;8.50;99.90
42201;DHT22;27869;51.442;7.540;2023-04-24T10:37:40;8.50;99.90
42201;DHT22;27869;51.442;7.540;2023-04-24T10:40:10;8.40;99.90
42201;DHT22;27869;51.442;7.540;2023-04-24T10:42:40;8.30;99.90
42201;DHT22;27869;51.442;7.540;2023-04-24T10:45:17;8.30;99.90
42201;DHT22;27869;51.442;7.540;2023-04-24T10:47:56;8.20;99.90
42201;DHT22;27869;51.442;7.540;2023-04-24T10:50:24;8.20;99.90
42201;DHT22;27869;51.442;7.540;2023-04-24T10:52:51;8.20;99.90
42201;DHT22;27869;51.442;7.540;2023-04-24T10:55:42;8.20;99.90
42201;DHT22;27869;51.442;7.540;2023-04-24T10:58:10;8.10;99.90
42201;DHT22;27869;51.442;7.540;2023-04-24T11:00:39;8.10;99.90
42201;DHT22;27869;51.442;7.540;2023-04-24T11:03:08;8.20;99.90
42201;DHT22;27869;51.442;7.540;2023-04-24T11:05:56;8.10;99.90
42201;DHT22;27869;51.442;7.540;2023-04-24T11:08:28;8.20;99.90
42201;DHT22;27869;51.442;7.540;2023-04-24T11:11:01;8.30;99.90
42201;DHT22;27869;51.442;7.540;2023-04-24T11:16:41;8.30;99.90
42201;DHT22;27869;51.442;7.540;2023-04-24T11:19:18;8.30;99.90
42201;DHT22;27869;51.442;7.540;2023-04-24T11:21:46;8.40;99.90
42201;DHT22;27869;51.442;7.540;2023-04-24T11:24:28;8.40;99.90
42201;DHT22;27869;51.442;7.540;2023-04-24T11:26:57;8.40;99.90
42201;DHT22;27869;51.442;7.540;2023-04-24T11:29:42;8.40;99.90
42201;DHT22;27869;51.442;7.540;2023-04-24T11:32:19;8.40;99.90
42201;DHT22;27869;51.442;7.540;2023-04-24T11:34:50;8.40;99.90
42201;DHT22;27869;51.442;7.540;2023-04-24T11:37:18;8.40;99.90
42201;DHT22;27869;51.442;7.540;2023-04-24T11:39:45;8.40;99.90
42201;DHT22;27869;51.442;7.540;2023-04-24T11:42:14;8.40;99.90
42201;DHT22;27869;51.442;7.540;2023-04-24T11:44:42;8.40;99.90
42201;DHT22;27869;51.442;7.540;2023-04-24T11:47:13;8.50;99.90
42201;DHT22;27869;51.442;7.540;2023-04-24T11:49:41;8.50;99.90
42201;DHT22;27869;51.442;7.540;2023-04-24T11:52:08;8.50;99.90
42201;DHT22;27869;51.442;7.540;2023-04-24T11:54:36;8.50;99.90
42201;DHT22;27869;51.442;7.540;2023-04-24T11:57:04;8.50;99.90
42201;DHT22;27869;51.442;7.540;2023-04-24T11:59:35;8.60;99.90
42201;DHT22;27869;51.442;7.540;2023-04-24T12:02:03;8.70;99.90
42201;DHT22;27869;51.442;7.540;2023-04-24T12:04:38;8.70;99.90
42201;DHT22;27869;51.442;7.540;2023-04-24T12:07:07;8.70;99.90
42201;DHT22;27869;51.442;7.540;2023-04-24T12:09:42;8.70;99.90
42201;DHT22;27869;51.442;7.540;2023-04-24T12:12:09;8.70;99.90
42201;DHT22;27869;51.442;7.540;2023-04-24T12:14:43;8.70;99.90
42201;DHT22;27869;51.442;7.540;2023-04-24T12:17:10;8.70;99.90
42201;DHT22;27869;51.442;7.540;2023-04-24T12:19:37;8.70;99.90
42201;DHT22;27869;51.442;7.540;2023-04-24T12:22:04;8.70;99.90
42201;DHT22;27869;51.442;7.540;2023-04-24T12:24:33;8.80;99.90
42201;DHT22;27869;51.442;7.540;2023-04-24T12:27:00;8.80;99.90
42201;DHT22;27869;51.442;7.540;2023-04-24T12:29:28;8.80;99.90
42201;DHT22;27869;51.442;7.540;2023-04-24T12:31:54;8.70;99.90
42201;DHT22;27869;51.442;7.540;2023-04-24T12:34:23;8.70;99.90
42201;DHT22;27869;51.442;7.540;2023-04-24T12:36:51;8.70;99.90
42201;DHT22;27869;51.442;7.540;2023-04-24T12:39:19;8.70;99.90
42201;DHT22;27869;51.442;7.540;2023-04-24T12:41:56;8.70;99.90
42201;DHT22;27869;51.442;7.540;2023-04-24T12:44:30;8.70;99.90
42201;DHT22;27869;51.442;7.540;2023-04-24T12:47:00;8.80;99.90
42201;DHT22;27869;51.442;7.540;2023-04-24T12:49:27;8.90;99.90
42201;DHT22;27869;51.442;7.540;2023-04-24T12:51:54;9.00;99.90
42201;DHT22;27869;51.442;7.540;2023-04-24T12:54:22;9.10;99.90
42201;DHT22;27869;51.442;7.540;2023-04-24T12:56:48;9.20;99.90
42201;DHT22;27869;51.442;7.540;2023-04-24T12:59:17;9.20;99.90
42201;DHT22;27869;51.442;7.540;2023-04-24T13:01:44;9.30;99.90
42201;DHT22;27869;51.442;7.540;2023-04-24T13:04:11;9.30;99.90
42201;DHT22;27869;51.442;7.540;2023-04-24T13:06:37;9.30;99.90
42201;DHT22;27869;51.442;7.540;2023-04-24T13:09:04;9.20;99.90
42201;DHT22;27869;51.442;7.540;2023-04-24T13:11:31;9.20;99.90
42201;DHT22;27869;51.442;7.540;2023-04-24T13:13:58;9.20;99.90
42201;DHT22;27869;51.442;7.540;2023-04-24T13:16:26;9.20;99.90
42201;DHT22;27869;51.442;7.540;2023-04-24T13:18:53;9.20;99.90
42201;DHT22;27869;51.442;7.540;2023-04-24T13:21:20;9.20;99.90
42201;DHT22;27869;51.442;7.540;2023-04-24T13:23:47;9.20;99.90
42201;DHT22;27869;51.442;7.540;2023-04-24T13:26:14;9.20;99.90
42201;DHT22;27869;51.442;7.540;2023-04-24T13:28:41;9.20;99.90
42201;DHT22;27869;51.442;7.540;2023-04-24T13:31:08;9.30;99.90
42201;DHT22;27869;51.442;7.540;2023-04-24T13:33:37;9.30;99.90
42201;DHT22;27869;51.442;7.540;2023-04-24T13:36:04;9.30;99.90
42201;DHT22;27869;51.442;7.540;2023-04-24T13:38:31;9.40;99.90
42201;DHT22;27869;51.442;7.540;2023-04-24T13:40:58;9.40;99.90
42201;DHT22;27869;51.442;7.540;2023-04-24T13:43:25;9.50;99.90
42201;DHT22;27869;51.442;7.540;2023-04-24T13:45:52;9.60;99.90
42201;DHT22;27869;51.442;7.540;2023-04-24T13:48:19;9.70;99.90
42201;DHT22;27869;51.442;7.540;2023-04-24T13:50:47;9.70;99.90
42201;DHT22;27869;51.442;7.540;2023-04-24T13:53:15;9.70;99.90
42201;DHT22;27869;51.442;7.540;2023-04-24T13:55:42;9.70;99.90
42201;DHT22;27869;51.442;7.540;2023-04-24T13:58:09;9.80;99.90
42201;DHT22;27869;51.442;7.540;2023-04-24T14:00:36;9.80;99.90
42201;DHT22;27869;51.442;7.540;2023-04-24T14:03:04;9.80;99.90
42201;DHT22;27869;51.442;7.540;2023-04-24T14:05:31;9.80;99.90
42201;DHT22;27869;51.442;7.540;2023-04-24T14:08:00;9.70;99.90
42201;DHT22;27869;51.442;7.540;2023-04-24T14:10:26;9.70;99.90
42201;DHT22;27869;51.442;7.540;2023-04-24T14:12:53;9.70;99.90
42201;DHT22;27869;51.442;7.540;2023-04-24T14:15:20;9.70;99.90
42201;DHT22;27869;51.442;7.540;2023-04-24T14:17:48;9.70;99.90
42201;DHT22;27869;51.442;7.540;2023-04-24T14:20:15;9.70;99.90
42201;DHT22;27869;51.442;7.540;2023-04-24T14:22:42;9.70;99.90
42201;DHT22;27869;51.442;7.540;2023-04-24T14:25:10;9.70;99.90
42201;DHT22;27869;51.442;7.540;2023-04-24T14:27:37;9.70;99.90
42201;DHT22;27869;51.442;7.540;2023-04-24T14:30:06;9.70;99.90
42201;DHT22;27869;51.442;7.540;2023-04-24T14:32:34;9.70;99.90
42201;DHT22;27869;51.442;7.540;2023-04-24T14:35:01;9.70;99.90
42201;DHT22;27869;51.442;7.540;2023-04-24T14:37:28;9.70;99.90
42201;DHT22;27869;51.442;7.540;2023-04-24T14:39:55;9.80;99.90
42201;DHT22;27869;51.442;7.540;2023-04-24T14:42:24;9.80;99.90
42201;DHT22;27869;51.442;7.540;2023-04-24T14:44:51;9.90;99.90
42201;DHT22;27869;51.442;7.540;2023-04-24T14:47:18;9.90;99.90
42201;DHT22;27869;51.442;7.540;2023-04-24T14:49:46;10.00;99.90
42201;DHT22;27869;51.442;7.540;2023-04-24T14:52:13;10.00;99.90
42201;DHT22;27869;51.442;7.540;2023-04-24T14:54:41;10.10;99.90
42201;DHT22;27869;51.442;7.540;2023-04-24T14:57:08;10.10;99.90
42201;DHT22;27869;51.442;7.540;2023-04-24T14:59:37;10.10;99.90
42201;DHT22;27869;51.442;7.540;2023-04-24T15:02:06;10.10;99.90
42201;DHT22;27869;51.442;7.540;2023-04-24T15:04:33;10.20;99.90
42201;DHT22;27869;51.442;7.540;2023-04-24T15:07:00;10.10;99.90
42201;DHT22;27869;51.442;7.540;2023-04-24T15:09:27;10.20;99.90
42201;DHT22;27869;51.442;7.540;2023-04-24T15:11:54;10.20;99.90
42201;DHT22;27869;51.442;7.540;2023-04-24T15:14:22;10.20;99.90
42201;DHT22;27869;51.442;7.540;2023-04-24T15:16:50;10.10;99.90
42201;DHT22;27869;51.442;7.540;2023-04-24T15:19:17;10.10;99.90
42201;DHT22;27869;51.442;7.540;2023-04-24T15:21:44;10.10;99.90
42201;DHT22;27869;51.442;7.540;2023-04-24T15:24:11;10.10;99.90
42201;DHT22;27869;51.442;7.540;2023-04-24T15:26:38;10.00;99.90
42201;DHT22;27869;51.442;7.540;2023-04-24T15:29:04;10.00;99.90
42201;DHT22;27869;51.442;7.540;2023-04-24T15:31:31;10.00;99.90
42201;DHT22;27869;51.442;7.540;2023-04-24T15:34:00;9.90;99.90
42201;DHT22;27869;51.442;7.540;2023-04-24T15:36:27;9.90;99.90
42201;DHT22;27869;51.442;7.540;2023-04-24T15:38:54;9.90;99.90
42201;DHT22;27869;51.442;7.540;2023-04-24T15:41:20;9.80;99.90
42201;DHT22;27869;51.442;7.540;2023-04-24T15:43:47;9.80;99.90
42201;DHT22;27869;51.442;7.540;2023-04-24T15:46:15;9.70;99.90
42201;DHT22;27869;51.442;7.540;2023-04-24T15:48:42;9.60;99.90
42201;DHT22;27869;51.442;7.540;2023-04-24T15:51:10;9.50;99.90